Historyczne dane pomiarowe

Dodano dane terminowe – wersja testowa.

Dane z okresu 1951-2019

Wersja bazy: 1.34 [2019-03-16, lista zmian], aktualizacja planowana na 2019-04-15

Dane meteo z obszaru Polski uzyskane na podstawie danych udostępnionych przez Instytut Meteorologii i Gospodarki Wodnej – Państwowy Instytut Badawczy.

 

Wybierz Datę:    

       

TemperaturaWilgotnośćWiatrCiśnienieOpadyŚniegCzas trwania zjawisk
 Stacja t tx tn tng RH VA  wxwx mslp ppp RRR   cm mm wxwxwxwxwxwxwx
2019-06-13 25.3 32.5 20.3------------x---------
2019-06-12 25.3 32.2 19.3------------x---------
2019-06-11 25.1 32.1 18.6------------x---------
2019-06-10 21.7 29.3 13.9------------x---------
2019-06-09 20.3 25.9 15.7------------x---------
2019-06-08 22.0 27.9 17.1------------x---------
2019-06-07 21.8 28.2 16.2------------x---------
2019-06-06 22.0 28.2 17.0------------x---------
2019-06-05 22.4 28.8 16.4------------x---------
2019-06-04 21.5 29.2 14.1------------x---------
2019-06-03 19.8 27.1 13.5------------x---------
2019-06-02 20.8 26.4 14.6------------x---------
2019-06-01 19.3 24.4 15.1------------x---------
2019-05-31 16.8 23.5 9.4------------x---------
2019-05-30 12.6 19.7 6.0------------x---------
2019-05-29 13.1 16.3 10.8------------x---------
2019-05-28 18.0 23.6 15.7------------x---------
2019-05-27 19.4 25.7 13.5------------x---------
2019-05-26 15.6 20.5 10.0------------x---------
2019-05-25 17.4 23.4 12.5------------x---------
2019-05-24 15.9 20.3 11.4------------x---------
2019-05-23 16.4 20.5 12.8------------x---------
2019-05-22 15.0 18.7 11.1------------x---------
2019-05-21 16.9 21.7 13.8------------x---------
2019-05-20 18.7 24.7 14.6------------x---------
2019-05-19 17.6 21.2 14.6------------x---------
2019-05-18 17.0 22.9 12.8------------x---------
2019-05-17 16.5 20.3 13.8------------x---------
2019-05-16 14.4 16.6 12.1------------x---------
2019-05-15 10.0 12.1 7.1------------x---------
2019-05-14 7.0 8.3 6.0------------x---------
2019-05-13 8.4 11.7 6.9------------x---------
2019-05-12 14.4 22.7 10.2------------x---------
2019-05-11 14.2 19.5 10.0------------x---------
2019-05-10 12.1 15.9 9.2------------x---------
2019-05-09 11.5 18.1 5.1------------x---------
2019-05-08 9.3 14.9 3.6------------x---------
2019-05-07 9.5 13.9 5.0------------x---------
2019-05-06 8.4 14.2 2.1------------x---------
2019-05-05 7.3 11.3 4.2------------x---------
2019-05-04 9.5 15.1 4.5------------x---------
2019-05-03 10.2 14.2 8.0------------x---------
2019-05-02 11.7 15.0 10.0------------x---------
2019-05-01 12.8 19.6 7.3------------x---------
2019-04-30 13.9 19.7 9.2------------x---------
2019-04-29 15.1 22.0 10.9------------x---------
2019-04-28 11.4 12.8 10.7------------x---------
2019-04-27 15.6 20.9 12.7------------x---------
2019-04-26 18.8 27.6 11.7------------x---------
2019-04-25 17.9 24.4 12.5------------x---------
2019-04-24 14.5 19.8 8.5------------x---------
2019-04-23 13.2 18.9 6.7------------x---------
2019-04-22 10.9 16.9 5.7------------x---------
2019-04-21 10.6 17.4 7.4------------x---------
2019-04-20 12.7 19.6 6.5------------x---------
2019-04-19 13.5 21.4 6.7------------x---------
2019-04-18 13.0 21.3 5.3------------x---------
2019-04-17 10.6 19.6 3.1------------x---------
2019-04-16 5.6 12.2 -0.3------------x---------
2019-04-15 6.5 12.9 0.8------------x---------
251.6 ms

 

Źródłem pochodzenia danych jest Instytut Meteorologii i Gospodarki Wodnej – Państwowy Instytut Badawczy. Dane Instytutu Meteorologii i Gospodarki Wodnej – Państwowego Instytutu Badawczego zostały przetworzone.

Dane źródłowe można odnaleźć na stronie https://dane.imgw.pl